Burns Flat, Oklahoma
Current Conditions -  °F | °C
As of 6:53 PM on Wednesday 22 Oct 2014 (Local Time) from KCSM Reporting Station
Light Rain Light Rain  
Wind Chill: 62°   Ceiling: 5500
Heat Index: 62°   Visibility: 7mi
Dew Point: 58°   Wind: 13mph
Humidity: 86%   Direction: 180°S
Pressure: 30.12"   Gusts: NA
Location:  35.35°N, 99.17°W
Report Text: KCSM 222353Z 18011KT 7SM -RA OVC055 17/14 A3012 RMK AO2 SLP189 P0002 60022 T01670144 10244 20161 51002
Loading
Personal Weather Stations






























Interactive Weather Map
Tropical Storm Tracking
New forecast layout! Learn more

10-Day Weather Forecast

Advertisements
Track Severe Weather on mobile